Time,TemperatureF,DewpointF,PressureIn,WindDirection,WindDirectionDegrees,WindSpeedMPH,WindSpeedGustMPH,Humidity,HourlyPrecipIn,Conditions,Clouds,dailyrainin,SoftwareType,DateUTC
2013-06-30 00:02:00,76.0,72.0,29.86,WNW,296,0.0,0.0,87,0.00,,,0.10,,2013-06-30 04:02:00,
2013-06-30 00:12:00,76.0,72.0,29.86,WNW,296,0.0,0.0,87,0.00,,,0.10,,2013-06-30 04:12:00,
2013-06-30 00:22:00,76.0,72.0,29.85,WNW,296,0.0,0.0,87,0.00,,,0.10,,2013-06-30 04:22:00,
2013-06-30 00:33:00,75.0,71.0,29.86,WNW,296,0.0,0.0,86,0.00,,,0.10,,2013-06-30 04:33:00,
2013-06-30 00:43:00,75.0,71.0,29.86,WNW,296,0.0,0.0,86,0.00,,,0.10,,2013-06-30 04:43:00,
2013-06-30 00:53:00,75.0,71.0,29.86,WNW,296,0.0,0.0,86,0.00,,,0.10,,2013-06-30 04:53:00,
2013-06-30 01:02:00,75.0,71.0,29.86,WNW,296,0.0,0.0,86,0.00,,,0.10,,2013-06-30 05:02:00,
2013-06-30 01:12:00,75.0,71.0,29.85,WNW,296,0.0,0.0,87,0.00,,,0.10,,2013-06-30 05:12:00,
2013-06-30 01:22:00,75.0,71.0,29.85,WNW,296,0.0,0.0,87,0.00,,,0.10,,2013-06-30 05:22:00,
2013-06-30 01:34:00,75.0,71.0,29.85,WNW,296,0.0,0.0,87,0.00,,,0.10,,2013-06-30 05:34:00,
2013-06-30 01:43:00,75.0,71.0,29.85,WNW,296,0.0,0.0,87,0.00,,,0.10,,2013-06-30 05:43:00,
2013-06-30 01:53:00,75.0,71.0,29.85,WNW,296,0.0,0.0,87,0.00,,,0.10,,2013-06-30 05:53:00,
2013-06-30 02:02:00,75.0,71.0,29.85,WNW,296,0.0,0.0,87,0.00,,,0.10,,2013-06-30 06:02:00,
2013-06-30 02:12:00,75.0,71.0,29.85,WNW,296,0.0,0.0,87,0.00,,,0.10,,2013-06-30 06:12:00,
2013-06-30 02:23:00,75.0,71.0,29.85,WNW,296,0.0,0.0,87,0.00,,,0.10,,2013-06-30 06:23:00,
2013-06-30 02:34:00,75.0,71.0,29.85,WNW,296,0.0,0.0,87,0.00,,,0.10,,2013-06-30 06:34:00,
2013-06-30 02:43:00,75.0,71.0,29.84,WNW,296,0.0,0.0,87,0.00,,,0.10,,2013-06-30 06:43:00,
2013-06-30 02:53:00,75.0,71.0,29.84,WNW,296,0.0,0.0,87,0.00,,,0.10,,2013-06-30 06:53:00,
2013-06-30 03:02:00,75.0,71.0,29.84,WNW,296,0.0,0.0,87,0.00,,,0.10,,2013-06-30 07:02:00,
2013-06-30 03:12:00,75.0,71.0,29.83,WNW,296,0.0,0.0,87,0.01,,,0.11,,2013-06-30 07:12:00,
2013-06-30 03:22:00,75.0,71.0,29.83,WNW,296,0.0,0.0,87,0.01,,,0.11,,2013-06-30 07:22:00,
2013-06-30 03:33:00,75.0,71.0,29.83,WNW,296,0.0,1.0,87,0.01,,,0.11,,2013-06-30 07:33:00,
2013-06-30 03:44:00,75.0,71.0,29.83,WNW,296,0.0,1.0,87,0.01,,,0.11,,2013-06-30 07:44:00,
2013-06-30 03:53:00,75.0,71.0,29.83,WNW,296,0.0,1.0,87,0.01,,,0.11,,2013-06-30 07:53:00,
2013-06-30 04:02:00,76.0,72.0,29.83,WNW,296,0.0,0.0,87,0.01,,,0.11,,2013-06-30 08:02:00,
2013-06-30 04:12:00,76.0,72.0,29.83,WNW,296,0.0,0.0,87,0.01,,,0.11,,2013-06-30 08:12:00,
2013-06-30 04:22:00,76.0,72.0,29.83,WNW,296,0.0,0.0,87,0.01,,,0.11,,2013-06-30 08:22:00,
2013-06-30 04:33:00,75.0,71.0,29.83,WNW,296,0.0,0.0,87,0.00,,,0.11,,2013-06-30 08:33:00,
2013-06-30 04:42:00,75.0,71.0,29.82,WNW,296,0.0,0.0,87,0.00,,,0.11,,2013-06-30 08:42:00,
2013-06-30 04:53:00,75.0,71.0,29.83,WNW,296,0.0,0.0,87,0.00,,,0.11,,2013-06-30 08:53:00,
2013-06-30 05:02:00,75.0,71.0,29.83,WNW,296,0.0,0.0,87,0.00,,,0.11,,2013-06-30 09:02:00,
2013-06-30 05:12:00,75.0,71.0,29.84,WNW,296,0.0,0.0,87,0.00,,,0.11,,2013-06-30 09:12:00,
2013-06-30 05:23:00,75.0,71.0,29.84,WNW,296,0.0,0.0,87,0.00,,,0.11,,2013-06-30 09:23:00,
2013-06-30 05:34:00,75.0,71.0,29.84,WNW,296,0.0,0.0,87,0.00,,,0.11,,2013-06-30 09:34:00,
2013-06-30 05:43:00,75.0,71.0,29.83,WNW,296,0.0,0.0,87,0.00,,,0.11,,2013-06-30 09:43:00,
2013-06-30 05:53:00,75.0,71.0,29.83,WNW,296,0.0,0.0,87,0.00,,,0.11,,2013-06-30 09:53:00,
2013-06-30 06:02:00,75.0,71.0,29.83,WNW,296,0.0,0.0,87,0.00,,,0.11,,2013-06-30 10:02:00,
2013-06-30 06:11:00,75.0,71.0,29.83,WNW,296,0.0,0.0,87,0.00,,,0.11,,2013-06-30 10:11:00,
2013-06-30 06:22:00,75.0,71.0,29.83,WNW,296,0.0,0.0,87,0.00,,,0.11,,2013-06-30 10:22:00,
2013-06-30 06:33:00,75.0,71.0,29.83,WNW,296,0.0,0.0,87,0.00,,,0.11,,2013-06-30 10:33:00,
2013-06-30 06:42:00,75.0,71.0,29.83,WNW,296,0.0,0.0,87,0.00,,,0.11,,2013-06-30 10:42:00,
2013-06-30 06:53:00,75.0,71.0,29.83,WNW,296,0.0,0.0,87,0.00,,,0.11,,2013-06-30 10:53:00,
2013-06-30 07:02:00,75.0,71.0,29.84,WNW,296,0.0,2.0,88,0.01,,,0.12,,2013-06-30 11:02:00,
2013-06-30 07:11:00,75.0,71.0,29.84,WNW,296,0.0,2.0,88,0.01,,,0.12,,2013-06-30 11:11:00,
2013-06-30 07:22:00,75.0,71.0,29.84,WNW,296,0.0,0.0,88,0.01,,,0.12,,2013-06-30 11:22:00,
2013-06-30 07:33:00,75.0,71.0,29.84,WNW,296,0.0,0.0,88,0.01,,,0.12,,2013-06-30 11:33:00,
2013-06-30 07:43:00,76.0,72.0,29.85,WNW,296,0.0,0.0,88,0.01,,,0.12,,2013-06-30 11:43:00,
2013-06-30 07:53:00,76.0,72.0,29.85,WNW,296,0.0,0.0,88,0.01,,,0.12,,2013-06-30 11:53:00,
2013-06-30 08:02:00,77.0,73.0,29.85,WNW,296,0.0,0.0,88,0.01,,,0.12,,2013-06-30 12:02:00,
2013-06-30 08:11:00,77.0,73.0,29.85,WNW,296,0.0,0.0,88,0.01,,,0.12,,2013-06-30 12:11:00,
2013-06-30 08:24:00,77.0,73.0,29.85,WNW,296,0.0,0.0,88,0.01,,,0.12,,2013-06-30 12:24:00,
2013-06-30 08:32:00,80.0,76.0,29.85,WNW,296,0.0,0.0,87,0.00,,,0.12,,2013-06-30 12:32:00,
2013-06-30 08:33:00,79.0,75.0,29.85,WNW,296,0.0,0.0,88,0.00,,,0.12,,2013-06-30 12:33:00,
2013-06-30 08:43:00,79.0,75.0,29.85,WNW,296,0.0,0.0,88,0.00,,,0.12,,2013-06-30 12:43:00,
2013-06-30 08:52:00,80.0,76.0,29.85,WNW,296,0.0,0.0,87,0.00,,,0.12,,2013-06-30 12:52:00,
2013-06-30 09:02:00,80.0,76.0,29.85,WNW,296,0.0,0.0,87,0.00,,,0.12,,2013-06-30 13:02:00,
2013-06-30 09:12:00,80.0,76.0,29.85,WNW,296,0.0,0.0,87,0.00,,,0.12,,2013-06-30 13:12:00,
2013-06-30 09:22:00,80.0,76.0,29.85,WNW,296,0.0,0.0,87,0.00,,,0.12,,2013-06-30 13:22:00,
2013-06-30 09:44:00,83.0,78.0,29.86,SSW,197,0.0,8.0,84,0.00,,,0.12,,2013-06-30 13:44:00,
2013-06-30 09:53:00,84.0,77.0,29.87,SW,225,0.0,3.0,80,0.00,,,0.12,,2013-06-30 13:53:00,
2013-06-30 10:02:00,85.0,77.0,29.87,West,276,0.0,14.0,77,0.00,,,0.12,,2013-06-30 14:02:00,
2013-06-30 10:11:00,86.0,78.0,29.86,SW,232,3.0,14.0,76,0.00,,,0.12,,2013-06-30 14:11:00,
2013-06-30 10:22:00,86.0,78.0,29.87,SW,214,1.0,7.0,76,0.00,,,0.12,,2013-06-30 14:22:00,
2013-06-30 10:33:00,86.0,78.0,29.87,SW,214,1.0,7.0,76,0.00,,,0.12,,2013-06-30 14:33:00,
2013-06-30 10:44:00,85.0,77.0,29.86,South,184,3.0,7.0,78,0.00,,,0.12,,2013-06-30 14:44:00,
2013-06-30 10:52:00,85.0,77.0,29.86,South,184,3.0,7.0,78,0.00,,,0.12,,2013-06-30 14:52:00,
2013-06-30 11:02:00,85.0,77.0,29.87,SSE,166,5.0,10.0,78,0.00,,,0.12,,2013-06-30 15:02:00,
2013-06-30 11:12:00,84.0,76.0,29.87,SSW,213,1.0,10.0,77,0.00,,,0.12,,2013-06-30 15:12:00,
2013-06-30 11:23:00,86.0,78.0,29.87,WSW,243,2.0,5.0,77,0.00,,,0.12,,2013-06-30 15:23:00,
2013-06-30 11:34:00,86.0,78.0,29.87,WSW,243,2.0,5.0,77,0.00,,,0.12,,2013-06-30 15:34:00,
2013-06-30 11:44:00,86.0,78.0,29.87,WSW,243,2.0,5.0,77,0.00,,,0.12,,2013-06-30 15:44:00,
2013-06-30 11:53:00,86.0,78.0,29.87,WSW,243,2.0,5.0,77,0.00,,,0.12,,2013-06-30 15:53:00,
2013-06-30 12:01:00,86.0,78.0,29.87,WSW,243,2.0,5.0,77,0.00,,,0.12,,2013-06-30 16:01:00,
2013-06-30 12:11:00,88.0,78.0,29.86,West,279,1.0,9.0,72,0.00,,,0.12,,2013-06-30 16:11:00,
2013-06-30 12:21:00,88.0,77.0,29.86,SSW,192,1.0,5.0,71,0.00,,,0.12,,2013-06-30 16:21:00,
2013-06-30 12:34:00,90.0,79.0,29.86,WSW,244,0.0,10.0,70,0.00,,,0.12,,2013-06-30 16:34:00,
2013-06-30 12:44:00,90.0,79.0,29.86,WSW,244,0.0,10.0,70,0.00,,,0.12,,2013-06-30 16:44:00,
2013-06-30 12:53:00,90.0,79.0,29.86,WSW,244,0.0,10.0,70,0.00,,,0.12,,2013-06-30 16:53:00,
2013-06-30 13:02:00,83.0,76.0,29.86,SSE,150,0.0,5.0,80,0.00,,,0.12,,2013-06-30 17:02:00,
2013-06-30 13:11:00,83.0,76.0,29.86,SSE,150,0.0,5.0,80,0.00,,,0.12,,2013-06-30 17:11:00,
2013-06-30 13:23:00,78.0,73.0,29.87,SSE,159,0.0,3.0,85,0.06,,,0.18,,2013-06-30 17:23:00,
2013-06-30 13:34:00,78.0,73.0,29.87,SSE,159,0.0,3.0,85,0.06,,,0.18,,2013-06-30 17:34:00,
2013-06-30 13:43:00,81.0,76.0,29.87,NNE,31,0.0,4.0,86,0.06,,,0.18,,2013-06-30 17:43:00,
2013-06-30 13:53:00,81.0,76.0,29.86,WSW,250,0.0,2.0,86,0.07,,,0.19,,2013-06-30 17:53:00,
2013-06-30 14:02:00,81.0,76.0,29.86,SSE,157,0.0,4.0,86,0.07,,,0.19,,2013-06-30 18:02:00,
2013-06-30 14:12:00,81.0,76.0,29.86,SSE,157,0.0,4.0,86,0.07,,,0.19,,2013-06-30 18:12:00,
2013-06-30 14:22:00,85.0,78.0,29.85,SW,232,4.0,8.0,79,0.01,,,0.19,,2013-06-30 18:22:00,
2013-06-30 14:34:00,86.0,79.0,29.85,SSE,159,0.0,8.0,79,0.01,,,0.19,,2013-06-30 18:34:00,
2013-06-30 14:43:00,86.0,79.0,29.85,SSE,159,0.0,8.0,79,0.01,,,0.19,,2013-06-30 18:43:00,
2013-06-30 14:53:00,83.0,77.0,29.84,East,99,3.0,9.0,82,0.01,,,0.20,,2013-06-30 18:53:00,
2013-06-30 15:01:00,82.0,77.0,29.84,SSE,153,0.0,9.0,86,0.01,,,0.20,,2013-06-30 19:01:00,
2013-06-30 15:11:00,82.0,77.0,29.84,SSE,153,0.0,9.0,86,0.01,,,0.20,,2013-06-30 19:11:00,
2013-06-30 15:22:00,82.0,77.0,29.83,ESE,105,0.0,4.0,86,0.01,,,0.20,,2013-06-30 19:22:00,
2013-06-30 15:33:00,82.0,77.0,29.83,ESE,105,0.0,4.0,86,0.01,,,0.20,,2013-06-30 19:33:00,
2013-06-30 15:43:00,83.0,78.0,29.83,SW,227,1.0,4.0,84,0.01,,,0.20,,2013-06-30 19:43:00,
2013-06-30 15:53:00,84.0,79.0,29.83,South,188,0.0,2.0,84,0.02,,,0.21,,2013-06-30 19:53:00,
2013-06-30 16:02:00,84.0,78.0,29.83,ESE,120,4.0,6.0,83,0.02,,,0.21,,2013-06-30 20:02:00,
2013-06-30 16:12:00,84.0,78.0,29.83,ESE,120,4.0,6.0,83,0.02,,,0.21,,2013-06-30 20:12:00,
2013-06-30 16:22:00,84.0,78.0,29.83,ESE,120,4.0,6.0,83,0.02,,,0.21,,2013-06-30 20:22:00,
2013-06-30 16:34:00,86.0,78.0,29.83,SSE,149,2.0,7.0,78,0.01,,,0.21,,2013-06-30 20:34:00,
2013-06-30 16:42:00,86.0,78.0,29.83,SSE,149,2.0,7.0,78,0.01,,,0.21,,2013-06-30 20:42:00,
2013-06-30 16:52:00,86.0,78.0,29.83,SSE,149,2.0,7.0,78,0.01,,,0.21,,2013-06-30 20:52:00,
2013-06-30 17:01:00,86.0,78.0,29.83,SSE,149,2.0,7.0,78,0.01,,,0.21,,2013-06-30 21:01:00,
2013-06-30 17:11:00,82.0,76.0,29.83,SW,226,0.0,10.0,82,0.08,,,0.29,,2013-06-30 21:11:00,
2013-06-30 17:22:00,82.0,77.0,29.83,WSW,244,1.0,2.0,86,0.09,,,0.30,,2013-06-30 21:22:00,
2013-06-30 17:34:00,82.0,77.0,29.83,WSW,244,1.0,2.0,86,0.09,,,0.30,,2013-06-30 21:34:00,
2013-06-30 17:43:00,83.0,77.0,29.83,WSW,252,0.0,8.0,81,0.09,,,0.30,,2013-06-30 21:43:00,
2013-06-30 17:53:00,84.0,77.0,29.84,SW,230,5.0,10.0,80,0.09,,,0.30,,2013-06-30 21:53:00,
2013-06-30 18:01:00,84.0,77.0,29.83,WSW,258,1.0,10.0,80,0.09,,,0.30,,2013-06-30 22:01:00,
2013-06-30 18:11:00,84.0,78.0,29.83,ENE,69,1.0,10.0,82,0.09,,,0.30,,2013-06-30 22:11:00,
2013-06-30 18:22:00,85.0,78.0,29.84,SW,226,4.0,7.0,80,0.00,,,0.30,,2013-06-30 22:22:00,
2013-06-30 18:34:00,85.0,78.0,29.84,SW,226,4.0,7.0,80,0.00,,,0.30,,2013-06-30 22:34:00,
2013-06-30 18:43:00,85.0,77.0,29.83,South,173,1.0,7.0,76,0.00,,,0.30,,2013-06-30 22:43:00,
2013-06-30 18:53:00,85.0,77.0,29.83,SSW,204,1.0,3.0,77,0.00,,,0.30,,2013-06-30 22:53:00,
2013-06-30 19:02:00,84.0,77.0,29.84,ESE,119,0.0,3.0,79,0.00,,,0.30,,2013-06-30 23:02:00,
2013-06-30 19:11:00,84.0,77.0,29.84,ESE,119,0.0,3.0,79,0.00,,,0.30,,2013-06-30 23:11:00,
2013-06-30 19:22:00,83.0,76.0,29.84,SW,220,3.0,4.0,79,0.00,,,0.30,,2013-06-30 23:22:00,
2013-06-30 19:33:00,83.0,76.0,29.84,SW,220,3.0,4.0,79,0.00,,,0.30,,2013-06-30 23:33:00,
2013-06-30 19:44:00,82.0,76.0,29.85,East,94,0.0,6.0,81,0.00,,,0.30,,2013-06-30 23:44:00,
2013-06-30 19:53:00,82.0,76.0,29.85,East,94,0.0,6.0,81,0.00,,,0.30,,2013-06-30 23:53:00,
2013-06-30 20:01:00,82.0,76.0,29.85,SSE,161,0.0,1.0,82,0.00,,,0.30,,2013-07-01 00:01:00,
2013-06-30 20:11:00,82.0,76.0,29.86,SE,140,0.0,10.0,82,0.00,,,0.30,,2013-07-01 00:11:00,
2013-06-30 20:22:00,80.0,75.0,29.87,ESE,119,1.0,8.0,85,0.01,,,0.22,,2013-07-01 00:22:00,
2013-06-30 20:33:00,77.0,72.0,29.85,NE,50,0.0,8.0,86,0.26,,,0.47,,2013-07-01 00:33:00,
2013-06-30 20:42:00,77.0,72.0,29.85,NE,50,0.0,8.0,86,0.26,,,0.47,,2013-07-01 00:42:00,
2013-06-30 20:52:00,76.0,72.0,29.86,NE,50,0.0,0.0,87,0.27,,,0.47,,2013-07-01 00:52:00,
2013-06-30 21:01:00,76.0,72.0,29.86,NE,50,0.0,0.0,87,0.27,,,0.47,,2013-07-01 01:01:00,
2013-06-30 21:11:00,76.0,72.0,29.87,NE,50,0.0,0.0,86,0.27,,,0.47,,2013-07-01 01:11:00,
2013-06-30 21:22:00,76.0,72.0,29.87,NE,50,0.0,0.0,86,0.27,,,0.47,,2013-07-01 01:22:00,
2013-06-30 21:33:00,76.0,72.0,29.87,NE,50,0.0,0.0,86,0.27,,,0.47,,2013-07-01 01:33:00,
2013-06-30 21:42:00,76.0,72.0,29.88,NE,50,0.0,0.0,86,0.27,,,0.47,,2013-07-01 01:42:00,
2013-06-30 21:52:00,76.0,72.0,29.89,NE,50,0.0,0.0,87,0.00,,,0.47,,2013-07-01 01:52:00,
2013-06-30 22:02:00,76.0,72.0,29.89,NE,50,0.0,0.0,86,0.00,,,0.47,,2013-07-01 02:02:00,
2013-06-30 22:12:00,77.0,72.0,29.90,West,281,0.0,3.0,86,0.00,,,0.47,,2013-07-01 02:12:00,
2013-06-30 22:22:00,77.0,72.0,29.91,West,281,0.0,1.0,86,0.00,,,0.47,,2013-07-01 02:22:00,
2013-06-30 22:33:00,77.0,72.0,29.91,NNW,330,0.0,3.0,86,0.00,,,0.47,,2013-07-01 02:33:00,
2013-06-30 22:44:00,77.0,72.0,29.91,NNW,330,0.0,3.0,86,0.00,,,0.47,,2013-07-01 02:44:00,
2013-06-30 22:53:00,77.0,72.0,29.91,NNW,330,0.0,3.0,86,0.00,,,0.47,,2013-07-01 02:53:00,
2013-06-30 23:01:00,75.0,71.0,29.91,SSE,167,1.0,5.0,86,0.09,,,0.56,,2013-07-01 03:01:00,
2013-06-30 23:11:00,75.0,71.0,29.91,SSE,167,1.0,5.0,86,0.09,,,0.56,,2013-07-01 03:11:00,
2013-06-30 23:23:00,75.0,71.0,29.91,SSE,167,1.0,5.0,86,0.09,,,0.56,,2013-07-01 03:23:00,
2013-06-30 23:33:00,75.0,71.0,29.91,SSE,167,1.0,5.0,86,0.09,,,0.56,,2013-07-01 03:33:00,
2013-06-30 23:43:00,75.0,71.0,29.91,SSE,167,1.0,5.0,86,0.09,,,0.56,,2013-07-01 03:43:00,